Impacts TAF Board
For situational awareness. Not to be used for flight planning purposes.
IDs:

KASD - Slidell Arpt, LA, US

Issued at 1138 UTC 17 Dec 2018
Updated at 1207 UTC 17 Dec 2018
Potential Impact None Slight Moderate High
Time1153Z 17/13Z 17/14Z 17/15Z 17/16Z 17/17Z 17/18Z 17/19Z 17/20Z 17/21Z 17/22Z 17/23Z 18/00Z 18/01Z>>
Type OBS PRVL PRVL PRVL PRVL PRVL PRVL PRVL PRVL PRVL PRVL PRVL PRVL PRVL
VIS 10 >6 >6 >6 >6 >6 >6 >6 >6 >6 >6 >6 >6 >6
CIG -- 250 250 250 250 250 250 250 250 250 250 250 250 250
Cover CLR BKN BKN BKN BKN BKN BKN BKN BKN BKN BKN BKN BKN BKN
FltCat VFR VFR VFR VFR VFR VFR VFR VFR VFR VFR VFR VFR VFR VFR
WX -- -- -- -- -- -- -- -- -- -- -- -- -- --
WDir VRB VRB VRB VRB VRB VRB VRB VRB VRB VRB VRB VRB VRB VRB
WSpd 0 4 4 4 4 4 4 4 4 4 4 4 4 4
WGst -- -- -- -- -- -- -- -- -- -- -- -- -- --
Raw TAF
KASD 171138Z 1712/1812 VRB04KT P6SM BKN250

Raw METAR
KASD 171153Z AUTO 00000KT 10SM CLR 07/06 A3027 RMK AO2 SLP249 T00670056 10067 20056 53008
KASD 171053Z AUTO 00000KT 10SM CLR 06/05 A3024 RMK AO2 SLP240 T00610050
KASD 170953Z AUTO 00000KT 10SM CLR 06/04 A3024 RMK AO2 SLP238 T00610044

METAR Board
Radar Display
Forecast Discussion
For situational awareness. Not to be used for flight planning purposes.